MMSD/SJD METAR and TAF weather

Enter ICAO airport designator
Station Type Date Time Source
MMSD METAR 2019/08/17 11:11 UTC NOAA

MMSD 171111Z RTD 00000KT 12SM SKC 27/18 A2986 RMK AC RTS


Station Type Date Time Source
MMSD Decoded METAR 2019/08/17 11:11 UTC NOAA

Station name not available
Aug 17, 2019 - 07:11 AM EDT / 2019.08.17 1111 UTC
Wind: Calm:0
Visibility: 12 mile(s):0
Sky conditions: clear
Temperature: 80 F (27 C)
Dew Point: 64 F (18 C)
Relative Humidity: 57%
Pressure (altimeter): 29.86 in. Hg (1011 hPa)
ob: MMSD 171111Z RTD 00000KT 12SM SKC 27/18 A2986 RMK AC RTS
cycle: 11

Station Type Date Time Source
MMSD TAF 2019/08/17 06:07 UTC NOAA

TAF MMSD 170500Z 1706/1806 30005KT P6SM SCT250
FM171800 15010KT P6SM SCT030 SCT250
FM180200 30005KT P6SM SCT250

Example: see airport list